Vale do Aço Regional Airport

SBIP · Minas Gerais, Brésil

METAR anciennes SBIP · Usiminas Airport

Tu vois ci-dessous les METAR des derniers jours. Sélectionne une année pour parcourir les METAR plus anciens, à partir de l'année 2007.

12 avril 2024

Temps Code Temps Temp. Vue Base cloud Vent METAR/SPECI
18:00
V
24 °C 10 km+ - 230° 230° 2 kt METAR SBIP 122100Z AUTO 23002KT CAVOK 24/19 Q1014
17:00
V
29 °C 10 km+ - 230° 230° 3 kt METAR SBIP 122000Z AUTO 23003KT CAVOK 29/18 Q1014
16:00
V
32 °C 10 km+ - Var Var 2 kt METAR SBIP 121900Z AUTO VRB02KT CAVOK 32/17 Q1014
15:00
V
31 °C 10 km+ - Var Var 2 kt METAR SBIP 121800Z AUTO VRB02KT 9999 FEW048 31/16 Q1014
14:00
V
31 °C 10 km+ - Var Var 2 kt METAR SBIP 121700Z AUTO VRB02KT CAVOK 31/16 Q1015
13:00
V
31 °C 10 km+ - Var Var 2 kt METAR SBIP 121600Z AUTO VRB02KT 9999 FEW043 31/17 Q1016
12:00
V
30 °C 10 km+ - Var Var 3 kt METAR SBIP 121500Z AUTO VRB03KT CAVOK 30/17 Q1017
11:00
V
28 °C 10 km+ - Var Var 2 kt METAR SBIP 121400Z AUTO VRB02KT 9999 FEW034 28/17 Q1018
10:00
V
27 °C 10 km+ - 210° 210° 3 kt METAR SBIP 121300Z AUTO 21003KT 180V250 9999 FEW027 27/16 Q1018
09:00
V
27 °C 10 km+ - 340° 340° 3 kt METAR SBIP 121200Z AUTO 34003KT 300V030 9999 FEW018 27/18 Q1018
08:00
V
26 °C 10 km+ - 030° 030° 3 kt METAR SBIP 121100Z AUTO 03003KT 360V080 CAVOK 26/18 Q1018
07:00
L
23 °C 1,7 km 400 ft 360° 360° 0 kt METAR SBIP 121000Z AUTO 00000KT 1700 BR VV004 23/19 Q1017
07:02
I
23 °C 2,3 km 500 ft 360° 360° 0 kt METAR SBIP 121002Z AUTO 00000KT 2300 BR VV005 23/19 Q1017
06:00
L
21 °C 1,1 km - 210° 210° 1 kt METAR SBIP 120900Z AUTO 21001KT 1100 BR SCT002 SCT004 21/18 Q1017
06:06
L
21 °C 10 km+ 100 ft 210° 210° 2 kt METAR SBIP 120906Z AUTO 21002KT 9999 BKN001 21/18 Q1017
05:00
V
22 °C 10 km+ 3.500 ft 310° 310° 2 kt METAR SBIP 120800Z AUTO 31002KT 9999 BKN035 22/19 Q1016
04:00
V
22 °C 10 km+ - Var Var 1 kt METAR SBIP 120700Z AUTO VRB01KT CAVOK 22/20 Q1015
03:00
V
23 °C 10 km+ - Var Var 2 kt METAR SBIP 120600Z AUTO VRB02KT 9999 FEW001 23/21 Q1016
02:00
V
23 °C 10 km+ - 360° 360° 0 kt METAR SBIP 120500Z AUTO 00000KT CAVOK 23/21 Q1015
01:00
V
23 °C 10 km+ - 190° 190° 2 kt METAR SBIP 120400Z AUTO 19002KT CAVOK 23/21 Q1016
00:00
V
23 °C 10 km+ - 210° 210° 3 kt METAR SBIP 120300Z AUTO 21003KT CAVOK 23/22 Q1016

11 avril 2024

Temps Code Temps Temp. Vue Base cloud Vent METAR/SPECI
23:00
I
24 °C 4,5 km - Var Var 2 kt METAR SBIP 120200Z AUTO VRB02KT 4500 RA NSC 24/21 Q1016
23:09
V
24 °C 9 km - 270° 270° 5 kt METAR SBIP 120209Z AUTO 27005KT 200V330 9000 RA SCT044 24/18 Q1016
22:00
V
23 °C 10 km+ - 210° 210° 4 kt METAR SBIP 120100Z AUTO 21004KT CAVOK 23/21 Q1015
21:00
V
23 °C 10 km+ - 190° 190° 2 kt METAR SBIP 120000Z AUTO 19002KT CAVOK 23/20 Q1015
20:00
V
23 °C 10 km+ - Var Var 2 kt METAR SBIP 112300Z AUTO VRB02KT CAVOK 23/20 Q1014
19:00
V
23 °C 10 km+ - Var Var 1 kt METAR SBIP 112200Z AUTO VRB01KT CAVOK 23/18 Q1013
18:00
V
25 °C 10 km+ - 360° 360° 0 kt METAR SBIP 112100Z AUTO 00000KT CAVOK 25/17 Q1012
17:00
V
32 °C 10 km+ - Var Var 2 kt METAR SBIP 112000Z AUTO VRB02KT CAVOK 32/18 Q1012
16:00
V
32 °C 10 km+ - Var Var 3 kt METAR SBIP 111900Z AUTO VRB03KT CAVOK 32/16 Q1012
15:00
V
33 °C 10 km+ - Var Var 3 kt METAR SBIP 111800Z AUTO VRB03KT CAVOK 33/17 Q1012
14:00
V
33 °C 10 km+ - 010° 010° 4 kt METAR SBIP 111700Z AUTO 01004KT 310V060 CAVOK 33/17 Q1013
13:00
V
32 °C 10 km+ - Var Var 3 kt METAR SBIP 111600Z AUTO VRB03KT 9999 FEW044 32/17 Q1014
12:00
V
31 °C 10 km+ - 350° 350° 6 kt METAR SBIP 111500Z AUTO 35006KT 320V090 CAVOK 31/17 Q1015
11:00
V
30 °C 10 km+ - 050° 050° 5 kt METAR SBIP 111400Z AUTO 05005KT 350V120 9999 FEW029 30/18 Q1015
10:00
V
28 °C 10 km+ - 010° 010° 6 kt METAR SBIP 111300Z AUTO 01006KT 330V040 9999 SCT023 28/18 Q1016
09:00
V
27 °C 10 km+ - 010° 010° 6 kt METAR SBIP 111200Z AUTO 01006KT 320V040 9999 FEW019 27/18 Q1016
08:00
V
25 °C 10 km+ 4.300 ft 360° 360° 4 kt METAR SBIP 111100Z AUTO 36004KT 330V030 9999 BKN043 25/18 Q1016
07:00
V
23 °C 10 km+ 3.300 ft Var Var 2 kt METAR SBIP 111000Z AUTO VRB02KT 9999 BKN033 23/22 Q1015
06:00
V
21 °C 10 km+ 3.900 ft Var Var 1 kt METAR SBIP 110900Z AUTO VRB01KT 9999 BKN039 21/19 Q1015
05:00
V
22 °C 10 km+ - Var Var 1 kt METAR SBIP 110800Z AUTO VRB01KT 9999 FEW028 22/21 Q1014
04:00
V
22 °C 10 km+ 3.800 ft 330° 330° 1 kt METAR SBIP 110700Z AUTO 33001KT 9999 SCT029 OVC038 22/21 Q1014
03:00
V
22 °C 10 km+ 3.600 ft Var Var 2 kt METAR SBIP 110600Z AUTO VRB02KT 9999 BKN036 22/20 Q1014
02:00
V
21 °C 10 km+ - Var Var 1 kt METAR SBIP 110500Z AUTO VRB01KT 9999 FEW040 21/20 Q1014
01:00
V
22 °C 10 km+ - 310° 310° 1 kt METAR SBIP 110400Z AUTO 31001KT CAVOK 22/21 Q1014
00:00
V
22 °C 10 km+ - Var Var 2 kt METAR SBIP 110300Z AUTO VRB02KT CAVOK 22/21 Q1014

10 avril 2024

Temps Code Temps Temp. Vue Base cloud Vent METAR/SPECI
23:00
V
22 °C 10 km+ - 030° 030° 4 kt METAR SBIP 110200Z AUTO 03004KT CAVOK 22/21 Q1014
22:00
V
22 °C 10 km+ - Var Var 1 kt METAR SBIP 110100Z AUTO VRB01KT CAVOK 22/20 Q1013
21:00
V
22 °C 10 km+ - 210° 210° 3 kt METAR SBIP 110000Z AUTO 21003KT CAVOK 22/20 Q1013
20:00
V
23 °C 10 km+ - Var Var 1 kt METAR SBIP 102300Z AUTO VRB01KT CAVOK 23/17 Q1012
19:00
V
23 °C 10 km+ - Var Var 2 kt METAR SBIP 102200Z AUTO VRB02KT CAVOK 23/17 Q1011
18:00
V
24 °C 10 km+ - Var Var 1 kt METAR SBIP 102100Z AUTO VRB01KT CAVOK 24/17 Q1010
17:00
V
29 °C 10 km+ - 290° 290° 2 kt METAR SBIP 102000Z AUTO 29002KT CAVOK 29/18 Q1010
16:00
V
33 °C 10 km+ - Var Var 2 kt METAR SBIP 101900Z AUTO VRB02KT CAVOK 33/16 Q1010
15:00
V
32 °C 10 km+ - Var Var 3 kt METAR SBIP 101800Z AUTO VRB03KT CAVOK 32/16 Q1011
14:00
V
32 °C 10 km+ - 040° 040° 3 kt METAR SBIP 101700Z AUTO 04003KT 340V100 CAVOK 32/17 Q1011
13:00
V
32 °C 10 km+ - Var Var 3 kt METAR SBIP 101600Z AUTO VRB03KT CAVOK 32/17 Q1012
12:00
V
31 °C 10 km+ - 030° 030° 6 kt METAR SBIP 101500Z AUTO 03006KT 320V070 9999 FEW036 31/17 Q1013
11:00
V
30 °C 10 km+ - 030° 030° 4 kt METAR SBIP 101400Z AUTO 03004KT 350V070 CAVOK 30/17 Q1015
10:00
V
28 °C 10 km+ - Var Var 4 kt METAR SBIP 101300Z AUTO VRB04KT CAVOK 28/18 Q1016
09:00
V
27 °C 10 km+ 4.600 ft Var Var 2 kt METAR SBIP 101200Z AUTO VRB02KT 9999 OVC046 27/17 Q1016
08:00
V
25 °C 10 km+ 4.200 ft Var Var 2 kt METAR SBIP 101100Z AUTO VRB02KT 9999 SCT036 OVC042 25/18 Q1015
07:00
V
23 °C 10 km+ 3.400 ft Var Var 2 kt METAR SBIP 101000Z AUTO VRB02KT 9999 FEW029 BKN034 BKN039 23/21 Q1014
06:00
V
21 °C 10 km+ - 360° 360° 0 kt METAR SBIP 100900Z AUTO 00000KT 9999 SCT030 SCT037 21/18 Q1013
05:00
V
22 °C 10 km+ - 360° 360° 0 kt METAR SBIP 100800Z AUTO 00000KT CAVOK 22/20 Q1013
04:00
V
22 °C 10 km+ - Var Var 2 kt METAR SBIP 100700Z AUTO VRB02KT CAVOK 22/21 Q1013
03:00
V
22 °C 10 km+ - Var Var 1 kt METAR SBIP 100600Z AUTO VRB01KT CAVOK 22/21 Q1013
Signaler les modifications